Terminal Aerodrome Forecast
Issued by NWS

Home | Current Version | Previous Version | Graphics & Text | Print | Product List | Glossary On
Versions: 1 2 3 4 5 6 7 8 9 10 11 12 13 14 15
000
FTUS43 KICT 190300 AAA
TAFRSL
TAF AMD
KRSL 190338Z 1904/1924 13007KT P6SM BKN200
      TEMPO 1905/1907 34025G40KT 3SM TSRA BKN060CB
     FM191900 17014KT P6SM SCT250=

USA.gov is the U.S. government's official web portal to all federal, state and local government web resources and services.